Time;durP1;ratioP1;P1;durP2;ratioP2;P2;SDS_P1;SDS_P2;PMS_P1;PMS_P2;Temp;Humidity;BMP_temperature;BMP_pressure;BME280_temperature;BME280_humidity;BME280_pressure;Samples;Min_cycle;Max_cycle;Signal;HPM_P1;HPM_P2
2022/08/16 00:05:55;;;;;;;0.22;0.20;;;;;;;;;;4967401;28;20065;-80
2022/08/16 00:08:25;;;;;;;0.15;0.15;;;;;;;;;;4970201;28;20058;-81
2022/08/16 00:11:08;;;;;;;0.40;0.40;;;;;;;;;;4969857;28;20057;-80
2022/08/16 00:13:44;;;;;;;0.28;0.28;;;;;;;;;;4969344;28;20137;-80
2022/08/16 00:16:23;;;;;;;0.35;0.30;;;;;;;;;;4959205;28;20062;-81
2022/08/16 00:19:12;;;;;;;0.28;0.17;;;;;;;;;;4970673;28;20138;-82
2022/08/16 00:21:43;;;;;;;0.93;0.20;;;;;;;;;;4970125;28;20304;-81
2022/08/16 00:24:12;;;;;;;0.47;0.47;;;;;;;;;;4969974;28;20043;-82
2022/08/16 00:26:58;;;;;;;0.30;0.25;;;;;;;;;;4971964;28;20094;-81
2022/08/16 00:29:28;;;;;;;1.95;0.35;;;;;;;;;;4970713;28;20051;-82
2022/08/16 00:31:57;;;;;;;0.10;0.10;;;;;;;;;;4969396;28;20055;-80
2022/08/16 00:34:33;;;;;;;0.98;0.35;;;;;;;;;;4970652;28;20411;-81
2022/08/16 00:37:14;;;;;;;0.88;0.20;;;;;;;;;;4968413;28;20057;-81
2022/08/16 00:39:46;;;;;;;0.40;0.30;;;;;;;;;;4970049;28;20059;-80
2022/08/16 00:42:24;;;;;;;0.20;0.20;;;;;;;;;;4960926;28;20057;-81
2022/08/16 00:45:01;;;;;;;0.10;0.10;;;;;;;;;;4968998;28;20055;-82
2022/08/16 00:47:37;;;;;;;0.85;0.40;;;;;;;;;;4970128;28;20051;-83
2022/08/16 00:50:06;;;;;;;0.60;0.30;;;;;;;;;;4969911;28;20086;-81
2022/08/16 00:52:41;;;;;;;0.50;0.25;;;;;;;;;;4970279;28;20054;-80
2022/08/16 00:55:18;;;;;;;0.28;0.28;;;;;;;;;;4959692;28;20047;-81
2022/08/16 00:57:47;;;;;;;0.13;0.10;;;;;;;;;;4969617;28;20093;-81
2022/08/16 01:00:29;;;;;;;0.40;0.30;;;;;;;;;;4974137;28;20050;-80
2022/08/16 01:02:58;;;;;;;0.82;0.40;;;;;;;;;;4973225;28;20043;-80
2022/08/16 01:05:27;;;;;;;0.82;0.40;;;;;;;;;;4972348;28;20129;-80
2022/08/16 01:07:57;;;;;;;0.55;0.40;;;;;;;;;;4973379;28;20154;-80
2022/08/16 01:10:28;;;;;;;0.30;0.30;;;;;;;;;;4972510;28;20077;-82
2022/08/16 01:13:03;;;;;;;2.53;0.30;;;;;;;;;;4973248;28;20066;-83
2022/08/16 01:15:33;;;;;;;0.20;0.20;;;;;;;;;;4972602;28;20054;-80
2022/08/16 01:18:03;;;;;;;0.22;0.22;;;;;;;;;;4972326;28;20476;-80
2022/08/16 01:20:32;;;;;;;0.70;0.43;;;;;;;;;;4972526;28;20122;-82
2022/08/16 01:23:05;;;;;;;0.75;0.30;;;;;;;;;;4973196;28;20058;-81
2022/08/16 01:25:40;;;;;;;1.23;0.40;;;;;;;;;;4972488;28;20130;-80
2022/08/16 01:28:13;;;;;;;0.30;0.30;;;;;;;;;;4972441;28;20487;-81
2022/08/16 01:30:49;;;;;;;0.52;0.20;;;;;;;;;;4972799;28;20134;-81
2022/08/16 01:33:19;;;;;;;0.50;0.40;;;;;;;;;;4972705;28;20125;-80
2022/08/16 01:35:51;;;;;;;0.30;0.30;;;;;;;;;;4962526;28;20066;-83
2022/08/16 01:38:22;;;;;;;0.60;0.40;;;;;;;;;;4972486;28;20105;-83
2022/08/16 01:40:57;;;;;;;0.82;0.50;;;;;;;;;;4972228;28;20051;-80
2022/08/16 01:43:32;;;;;;;0.10;0.10;;;;;;;;;;4972601;28;20557;-82
2022/08/16 01:46:04;;;;;;;1.08;0.40;;;;;;;;;;4972245;28;20059;-82
2022/08/16 01:48:54;;;;;;;0.38;0.38;;;;;;;;;;4962711;28;20050;-81
2022/08/16 01:51:24;;;;;;;0.20;0.13;;;;;;;;;;4972070;28;20055;-82
2022/08/16 01:53:52;;;;;;;0.57;0.40;;;;;;;;;;4972700;28;20131;-80
2022/08/16 01:56:25;;;;;;;0.50;0.30;;;;;;;;;;4971219;28;20047;-81
2022/08/16 01:58:54;;;;;;;0.20;0.20;;;;;;;;;;4972321;28;20137;-82
2022/08/16 02:01:24;;;;;;;0.15;0.15;;;;;;;;;;4968488;28;20131;-81
2022/08/16 02:03:56;;;;;;;1.75;0.20;;;;;;;;;;4971779;28;20047;-81
2022/08/16 02:06:31;;;;;;;0.20;0.20;;;;;;;;;;4971674;28;20093;-83
2022/08/16 02:09:03;;;;;;;0.20;0.20;;;;;;;;;;4972669;28;20054;-80
2022/08/16 02:11:34;;;;;;;0.55;0.40;;;;;;;;;;4971335;28;20414;-81
2022/08/16 02:14:16;;;;;;;0.35;0.28;;;;;;;;;;4971847;28;20058;-80
2022/08/16 02:16:48;;;;;;;0.28;0.22;;;;;;;;;;4971684;28;20062;-81
2022/08/16 02:19:19;;;;;;;0.30;0.30;;;;;;;;;;4971830;28;20054;-80
2022/08/16 02:21:50;;;;;;;0.55;0.40;;;;;;;;;;4971764;28;20082;-83
2022/08/16 02:24:39;;;;;;;1.15;0.60;;;;;;;;;;4963688;28;20435;-82
2022/08/16 02:27:15;;;;;;;0.60;0.30;;;;;;;;;;4971479;28;20530;-80
2022/08/16 02:29:44;;;;;;;0.20;0.20;;;;;;;;;;4971779;28;20134;-80
2022/08/16 02:32:14;;;;;;;0.20;0.17;;;;;;;;;;4971185;28;20047;-82
2022/08/16 02:35:02;;;;;;;0.40;0.30;;;;;;;;;;4970374;28;20043;-81
2022/08/16 02:37:31;;;;;;;0.30;0.30;;;;;;;;;;4971386;28;20066;-82
2022/08/16 02:40:20;;;;;;;0.45;0.40;;;;;;;;;;4968289;28;20054;-80
2022/08/16 02:42:50;;;;;;;0.35;0.35;;;;;;;;;;4971199;28;20143;-82
2022/08/16 02:45:21;;;;;;;0.40;0.20;;;;;;;;;;4970526;28;20105;-81
2022/08/16 02:47:55;;;;;;;1.17;0.35;;;;;;;;;;4971310;28;20061;-81
2022/08/16 02:50:43;;;;;;;0.32;0.32;;;;;;;;;;4964351;28;20061;-81
2022/08/16 02:53:22;;;;;;;0.35;0.30;;;;;;;;;;4968757;28;20058;-81
2022/08/16 02:55:51;;;;;;;1.23;0.50;;;;;;;;;;4970874;28;20150;-83
2022/08/16 02:58:22;;;;;;;3.40;0.63;;;;;;;;;;4971222;28;20051;-80
2022/08/16 03:00:53;;;;;;;1.77;0.40;;;;;;;;;;4971134;28;20109;-81
2022/08/16 03:03:24;;;;;;;0.52;0.20;;;;;;;;;;4960816;28;20057;-80
2022/08/16 03:05:54;;;;;;;0.57;0.40;;;;;;;;;;4970114;28;20525;-81
2022/08/16 03:08:23;;;;;;;0.50;0.40;;;;;;;;;;4970918;28;20051;-80
2022/08/16 03:11:12;;;;;;;0.63;0.20;;;;;;;;;;4968641;28;20055;-81
2022/08/16 03:13:50;;;;;;;0.40;0.30;;;;;;;;;;4970846;28;20141;-80
2022/08/16 03:16:20;;;;;;;0.73;0.63;;;;;;;;;;4970235;28;20490;-82
2022/08/16 03:19:09;;;;;;;0.20;0.20;;;;;;;;;;4970764;28;20059;-81
2022/08/16 03:21:37;;;;;;;0.95;0.20;;;;;;;;;;4970390;28;20137;-81
2022/08/16 03:24:07;;;;;;;0.32;0.32;;;;;;;;;;4970045;28;20491;-81
2022/08/16 03:26:56;;;;;;;0.35;0.22;;;;;;;;;;4950565;28;20499;-81
2022/08/16 03:29:27;;;;;;;0.20;0.20;;;;;;;;;;4951604;28;20051;-82
2022/08/16 03:31:57;;;;;;;0.32;0.30;;;;;;;;;;4951475;28;20055;-81
2022/08/16 03:34:28;;;;;;;0.20;0.20;;;;;;;;;;4950925;28;20114;-82
2022/08/16 03:36:57;;;;;;;0.70;0.40;;;;;;;;;;4967789;28;20101;-80
2022/08/16 03:39:25;;;;;;;0.22;0.22;;;;;;;;;;4970657;28;20051;-81
2022/08/16 03:41:54;;;;;;;0.40;0.20;;;;;;;;;;4970369;28;20043;-80
2022/08/16 03:44:29;;;;;;;0.20;0.20;;;;;;;;;;4970538;28;20527;-81
2022/08/16 03:47:12;;;;;;;0.80;0.80;;;;;;;;;;4960161;28;20050;-81
2022/08/16 03:49:47;;;;;;;3.50;0.30;;;;;;;;;;4970250;28;20485;-81
2022/08/16 03:52:19;;;;;;;0.10;0.10;;;;;;;;;;4970567;28;20074;-81
2022/08/16 03:54:51;;;;;;;0.20;0.20;;;;;;;;;;4969713;28;20047;-81
2022/08/16 03:57:25;;;;;;;0.30;0.30;;;;;;;;;;4970136;28;20051;-81
2022/08/16 04:00:11;;;;;;;0.17;0.17;;;;;;;;;;4969841;28;20069;-81
2022/08/16 04:03:05;;;;;;;0.30;0.20;;;;;;;;;;4966765;28;20472;-81
2022/08/16 04:05:35;;;;;;;;;;;;;;;;;;4969897;28;20173;-82
2022/08/16 04:08:03;;;;;;;0.20;0.10;;;;;;;;;;4969814;28;20016;-81
2022/08/16 04:10:52;;;;;;;0.15;0.15;;;;;;;;;;4970150;28;20047;-82
2022/08/16 04:13:20;;;;;;;0.25;0.25;;;;;;;;;;4970129;28;20086;-80
2022/08/16 04:16:11;;;;;;;0.30;0.30;;;;;;;;;;4969890;28;20057;-83
2022/08/16 04:18:54;;;;;;;;;;;;;;;;;;4970723;28;20125;-80
2022/08/16 04:21:29;;;;;;;0.37;0.30;;;;;;;;;;4969910;28;19926;-81
2022/08/16 04:23:59;;;;;;;0.05;0.05;;;;;;;;;;4969546;28;20393;-81
2022/08/16 04:26:29;;;;;;;1.58;0.70;;;;;;;;;;4969157;28;20062;-81
2022/08/16 04:28:59;;;;;;;0.55;0.17;;;;;;;;;;4966881;28;20558;-80
2022/08/16 04:31:49;;;;;;;0.28;0.20;;;;;;;;;;4970685;28;20065;-81
2022/08/16 04:34:25;;;;;;;0.10;0.10;;;;;;;;;;4972229;28;20142;-80
2022/08/16 04:36:54;;;;;;;0.47;0.17;;;;;;;;;;4972349;28;20422;-81
2022/08/16 04:39:24;;;;;;;0.25;0.17;;;;;;;;;;4973187;28;20078;-81
2022/08/16 04:42:12;;;;;;;0.60;0.55;;;;;;;;;;4972760;28;20061;-81
2022/08/16 04:44:41;;;;;;;0.20;0.20;;;;;;;;;;4973356;28;20082;-81
2022/08/16 04:47:30;;;;;;;0.17;0.17;;;;;;;;;;4947449;28;20058;-81
2022/08/16 04:50:04;;;;;;;0.13;0.13;;;;;;;;;;4973519;28;20061;-81
2022/08/16 04:52:32;;;;;;;0.40;0.22;;;;;;;;;;4972978;28;20065;-82
2022/08/16 04:55:05;;;;;;;0.05;0.05;;;;;;;;;;4972123;28;20095;-81
2022/08/16 04:57:35;;;;;;;0.30;0.30;;;;;;;;;;4972900;28;20039;-81
2022/08/16 05:00:06;;;;;;;0.40;0.22;;;;;;;;;;4973235;28;20126;-83
2022/08/16 05:02:56;;;;;;;0.70;0.35;;;;;;;;;;4971517;28;20141;-80
2022/08/16 05:05:26;;;;;;;0.35;0.30;;;;;;;;;;4971916;28;20137;-80
2022/08/16 05:08:04;;;;;;;0.63;0.20;;;;;;;;;;4971421;28;20129;-81
2022/08/16 05:10:53;;;;;;;0.35;0.22;;;;;;;;;;4973579;28;20420;-81
2022/08/16 05:13:27;;;;;;;0.22;0.10;;;;;;;;;;4972574;28;20415;-81
2022/08/16 05:16:09;;;;;;;0.32;0.32;;;;;;;;;;4972999;28;20134;-82
2022/08/16 05:18:45;;;;;;;1.58;0.15;;;;;;;;;;4973321;28;20039;-80
2022/08/16 05:21:14;;;;;;;0.38;0.20;;;;;;;;;;4973219;28;20047;-81
2022/08/16 05:23:43;;;;;;;0.25;0.20;;;;;;;;;;4972650;28;20059;-82
2022/08/16 05:26:28;;;;;;;2.08;0.10;;;;;;;;;;4972468;28;20047;-81
2022/08/16 05:28:57;;;;;;;0.25;0.15;;;;;;;;;;4972501;28;20553;-80
2022/08/16 05:31:26;;;;;;;0.52;0.20;;;;;;;;;;4973379;28;20085;-81
2022/08/16 05:33:59;;;;;;;0.70;0.28;;;;;;;;;;4971054;28;20059;-81
2022/08/16 05:36:27;;;;;;;0.10;0.10;;;;;;;;;;4972278;28;20153;-81
2022/08/16 05:39:04;;;;;;;0.38;0.28;;;;;;;;;;4972351;28;20097;-81
2022/08/16 05:41:33;;;;;;;0.10;0.10;;;;;;;;;;4973017;28;20058;-82
2022/08/16 05:44:13;;;;;;;1.27;0.20;;;;;;;;;;4972590;28;20451;-82
2022/08/16 05:46:53;;;;;;;0.25;0.25;;;;;;;;;;4973118;28;20439;-82
2022/08/16 05:49:23;;;;;;;1.05;0.13;;;;;;;;;;4974556;28;20101;-82
2022/08/16 05:51:53;;;;;;;0.40;0.40;;;;;;;;;;4975032;28;20053;-82
2022/08/16 05:54:24;;;;;;;0.20;0.20;;;;;;;;;;4973376;28;20043;-81
2022/08/16 05:56:54;;;;;;;0.20;0.10;;;;;;;;;;4972065;28;20054;-81
2022/08/16 05:59:23;;;;;;;0.55;0.20;;;;;;;;;;4972032;28;20166;-81
2022/08/16 06:01:54;;;;;;;0.05;0.05;;;;;;;;;;4969379;28;20058;-80
2022/08/16 06:04:24;;;;;;;0.10;0.10;;;;;;;;;;4972325;28;20419;-81
2022/08/16 06:07:05;;;;;;;0.20;0.20;;;;;;;;;;4971814;28;20043;-80
2022/08/16 06:09:38;;;;;;;0.20;0.20;;;;;;;;;;4972123;28;20043;-80
2022/08/16 06:12:11;;;;;;;;;;;;;;;;;;4972222;28;20491;-81
2022/08/16 06:14:40;;;;;;;0.40;0.40;;;;;;;;;;4971768;28;19926;-80
2022/08/16 06:17:08;;;;;;;0.47;0.20;;;;;;;;;;4971882;28;20153;-81
2022/08/16 06:19:43;;;;;;;0.50;0.50;;;;;;;;;;4963194;28;20402;-81
2022/08/16 06:22:12;;;;;;;0.15;0.15;;;;;;;;;;4971562;28;20047;-81
2022/08/16 06:25:00;;;;;;;0.10;0.10;;;;;;;;;;4971313;28;20077;-80
2022/08/16 06:27:31;;;;;;;0.20;0.20;;;;;;;;;;4971872;28;20114;-82
2022/08/16 06:30:07;;;;;;;0.20;0.20;;;;;;;;;;4975246;28;20046;-81
2022/08/16 06:32:36;;;;;;;0.20;0.20;;;;;;;;;;4971929;28;20376;-80
2022/08/16 06:35:17;;;;;;;1.17;0.35;;;;;;;;;;4975818;28;20435;-80
2022/08/16 06:37:45;;;;;;;0.40;0.40;;;;;;;;;;4972149;28;20130;-80
2022/08/16 06:40:18;;;;;;;0.47;0.45;;;;;;;;;;4971655;28;20086;-82
2022/08/16 06:42:47;;;;;;;0.30;0.30;;;;;;;;;;4971416;28;20133;-80
2022/08/16 06:45:24;;;;;;;0.13;0.13;;;;;;;;;;4970810;28;20083;-81
2022/08/16 06:47:56;;;;;;;0.70;0.30;;;;;;;;;;4971394;28;20461;-80
2022/08/16 06:50:26;;;;;;;0.75;0.30;;;;;;;;;;4971562;28;20487;-81
2022/08/16 06:52:57;;;;;;;0.20;0.20;;;;;;;;;;4971367;28;20498;-80
2022/08/16 06:55:36;;;;;;;0.13;0.13;;;;;;;;;;4970653;28;20055;-80
2022/08/16 06:58:05;;;;;;;0.65;0.40;;;;;;;;;;4971470;28;20079;-80
2022/08/16 07:00:36;;;;;;;0.13;0.13;;;;;;;;;;4971278;28;20114;-81
2022/08/16 07:03:10;;;;;;;0.60;0.40;;;;;;;;;;4969807;28;20074;-82
2022/08/16 07:06:00;;;;;;;0.30;0.22;;;;;;;;;;4970132;28;20501;-83
2022/08/16 07:08:28;;;;;;;0.40;0.32;;;;;;;;;;4971482;28;20108;-81
2022/08/16 07:10:59;;;;;;;0.40;0.40;;;;;;;;;;4970770;28;20051;-80
2022/08/16 07:13:31;;;;;;;0.38;0.38;;;;;;;;;;4970822;28;20065;-82
2022/08/16 07:16:20;;;;;;;0.88;0.35;;;;;;;;;;4970302;28;20061;-81
2022/08/16 07:18:56;;;;;;;1.33;0.47;;;;;;;;;;4971128;28;20055;-82
2022/08/16 07:21:30;;;;;;;0.43;0.43;;;;;;;;;;4971386;28;20114;-82
2022/08/16 07:24:19;;;;;;;2.28;0.57;;;;;;;;;;4970627;28;20054;-82
2022/08/16 07:26:58;;;;;;;0.32;0.30;;;;;;;;;;4969735;28;20065;-81
2022/08/16 07:29:28;;;;;;;1.08;0.52;;;;;;;;;;4971275;28;20110;-80
2022/08/16 07:31:59;;;;;;;0.55;0.50;;;;;;;;;;4970836;28;20082;-81
2022/08/16 07:34:28;;;;;;;0.77;0.20;;;;;;;;;;4970807;28;20106;-81
2022/08/16 07:37:06;;;;;;;0.88;0.52;;;;;;;;;;4969915;28;20150;-81
2022/08/16 07:39:34;;;;;;;1.13;0.43;;;;;;;;;;4970401;28;20129;-82
2022/08/16 07:42:10;;;;;;;0.68;0.45;;;;;;;;;;4970988;28;20179;-81
2022/08/16 07:44:59;;;;;;;1.60;0.65;;;;;;;;;;4969975;28;20065;-82
2022/08/16 07:47:27;;;;;;;0.70;0.50;;;;;;;;;;4970359;28;20550;-81
2022/08/16 07:49:59;;;;;;;0.85;0.50;;;;;;;;;;4970763;28;20051;-80
2022/08/16 07:52:36;;;;;;;0.82;0.50;;;;;;;;;;4970603;28;20058;-80
2022/08/16 07:55:07;;;;;;;0.57;0.38;;;;;;;;;;4969944;28;20055;-82
2022/08/16 07:57:35;;;;;;;1.05;0.52;;;;;;;;;;4970303;28;20138;-81
2022/08/16 08:00:24;;;;;;;1.48;0.70;;;;;;;;;;4963263;28;20055;-81
2022/08/16 08:02:54;;;;;;;0.77;0.47;;;;;;;;;;4970234;28;20061;-82
2022/08/16 08:05:24;;;;;;;0.90;0.60;;;;;;;;;;4968876;28;20350;-81
2022/08/16 08:08:05;;;;;;;0.98;0.75;;;;;;;;;;4968621;28;20050;-82
2022/08/16 08:10:53;;;;;;;0.47;0.45;;;;;;;;;;4973304;28;20047;-82
2022/08/16 08:13:22;;;;;;;1.83;0.45;;;;;;;;;;4972721;28;20456;-81
2022/08/16 08:16:11;;;;;;;0.30;0.28;;;;;;;;;;4971729;28;20407;-81
2022/08/16 08:18:46;;;;;;;0.40;0.40;;;;;;;;;;4973927;28;20058;-81
2022/08/16 08:21:23;;;;;;;1.02;0.75;;;;;;;;;;4974796;28;20094;-82
2022/08/16 08:23:56;;;;;;;0.80;0.70;;;;;;;;;;4974398;28;20059;-82
2022/08/16 08:26:25;;;;;;;0.90;0.47;;;;;;;;;;4974004;28;20066;-81
2022/08/16 08:28:56;;;;;;;1.10;1.00;;;;;;;;;;4974401;28;20559;-81
2022/08/16 08:31:28;;;;;;;0.65;0.45;;;;;;;;;;4974645;28;20047;-80
2022/08/16 08:33:58;;;;;;;0.40;0.40;;;;;;;;;;4974547;28;20050;-81
2022/08/16 08:36:28;;;;;;;1.05;0.68;;;;;;;;;;4974082;28;20058;-81
2022/08/16 08:39:04;;;;;;;10.03;0.83;;;;;;;;;;4974611;28;20134;-82
2022/08/16 08:41:40;;;;;;;2.15;0.63;;;;;;;;;;4974502;28;20051;-81
2022/08/16 08:44:09;;;;;;;1.08;0.60;;;;;;;;;;4975878;28;20079;-81
2022/08/16 08:46:58;;;;;;;0.82;0.57;;;;;;;;;;4974066;28;20225;-81
2022/08/16 08:49:31;;;;;;;1.88;0.73;;;;;;;;;;4974380;28;20138;-82
2022/08/16 08:52:20;;;;;;;1.15;0.95;;;;;;;;;;4977043;28;20074;-86
2022/08/16 08:55:12;;;;;;;0.40;0.40;;;;;;;;;;4989765;28;20107;-81
2022/08/16 08:57:40;;;;;;;0.73;0.40;;;;;;;;;;4974029;28;20058;-83
2022/08/16 09:00:10;;;;;;;0.60;0.60;;;;;;;;;;4974256;28;20129;-81
2022/08/16 09:02:42;;;;;;;1.63;0.50;;;;;;;;;;4973607;28;20062;-81
2022/08/16 09:05:13;;;;;;;1.75;0.70;;;;;;;;;;4973221;28;20054;-82
2022/08/16 09:07:43;;;;;;;1.00;0.70;;;;;;;;;;4973640;28;20054;-82
2022/08/16 09:10:31;;;;;;;1.00;0.70;;;;;;;;;;4973900;28;20053;-81
2022/08/16 09:13:01;;;;;;;1.50;0.50;;;;;;;;;;4973073;28;20065;-81
2022/08/16 09:15:30;;;;;;;0.60;0.55;;;;;;;;;;4973244;28;20105;-81
2022/08/16 09:18:01;;;;;;;0.70;0.57;;;;;;;;;;4963520;28;20153;-81
2022/08/16 09:20:51;;;;;;;0.77;0.52;;;;;;;;;;4974139;28;20058;-81
2022/08/16 09:23:28;;;;;;;1.05;0.75;;;;;;;;;;4973627;28;20055;-81
2022/08/16 09:25:58;;;;;;;1.02;0.65;;;;;;;;;;4972669;28;20050;-81
2022/08/16 09:28:27;;;;;;;1.35;0.70;;;;;;;;;;4973037;28;20054;-81
2022/08/16 09:31:15;;;;;;;0.95;0.75;;;;;;;;;;4973404;28;20082;-81
2022/08/16 09:33:44;;;;;;;0.70;0.70;;;;;;;;;;4973549;28;20078;-80
2022/08/16 09:36:19;;;;;;;0.80;0.63;;;;;;;;;;4972735;28;20499;-81
2022/08/16 09:39:00;;;;;;;1.08;0.68;;;;;;;;;;4973309;28;20043;-81
2022/08/16 09:41:31;;;;;;;0.65;0.50;;;;;;;;;;4972627;28;20455;-81
2022/08/16 09:44:02;;;;;;;0.77;0.68;;;;;;;;;;4973186;28;20102;-81
2022/08/16 09:46:50;;;;;;;1.13;0.77;;;;;;;;;;4969999;28;20499;-80
2022/08/16 09:49:26;;;;;;;5.00;0.70;;;;;;;;;;4972815;28;20097;-82
2022/08/16 09:52:04;;;;;;;0.70;0.60;;;;;;;;;;4963456;28;20094;-81
2022/08/16 09:54:37;;;;;;;0.82;0.60;;;;;;;;;;4973173;28;20050;-81
2022/08/16 09:57:11;;;;;;;;;;;;;;;;;;4972823;28;20063;-82
2022/08/16 09:59:41;;;;;;;2.72;0.77;;;;;;;;;;4972322;28;20013;-82
2022/08/16 10:02:10;;;;;;;2.90;1.42;;;;;;;;;;4972535;28;20495;-81
2022/08/16 10:04:54;;;;;;;1.45;0.63;;;;;;;;;;4971782;28;20046;-81
2022/08/16 10:07:23;;;;;;;1.13;1.00;;;;;;;;;;4972540;28;20537;-82
2022/08/16 10:09:52;;;;;;;1.42;0.70;;;;;;;;;;4972291;28;20505;-82
2022/08/16 10:15:12;;;;;;;1.13;0.60;;;;;;;;;;4972302;28;20483;-83
2022/08/16 10:17:45;;;;;;;0.80;0.50;;;;;;;;;;4972728;28;20070;-81
2022/08/16 10:20:29;;;;;;;1.20;0.80;;;;;;;;;;4972286;28;20050;-82
2022/08/16 10:22:57;;;;;;;1.02;0.73;;;;;;;;;;4971882;28;20507;-81
2022/08/16 10:25:33;;;;;;;0.80;0.70;;;;;;;;;;4974039;28;20129;-81
2022/08/16 10:28:22;;;;;;;0.65;0.50;;;;;;;;;;4967286;28;20410;-82
2022/08/16 10:30:58;;;;;;;0.70;0.68;;;;;;;;;;4971531;28;20055;-82
2022/08/16 10:33:27;;;;;;;1.13;0.80;;;;;;;;;;4972538;28;20121;-83
2022/08/16 10:36:01;;;;;;;1.98;0.77;;;;;;;;;;4972251;28;20046;-81
2022/08/16 10:38:31;;;;;;;0.60;0.50;;;;;;;;;;4971963;28;20061;-82
2022/08/16 10:41:08;;;;;;;1.63;0.70;;;;;;;;;;4972016;28;20130;-82
2022/08/16 10:43:37;;;;;;;0.70;0.70;;;;;;;;;;4972064;28;20077;-82
2022/08/16 10:46:10;;;;;;;1.10;0.77;;;;;;;;;;4971467;28;20067;-83
2022/08/16 10:48:58;;;;;;;1.25;0.90;;;;;;;;;;4963259;28;20046;-82
2022/08/16 10:51:28;;;;;;;4.13;1.48;;;;;;;;;;4971273;28;20543;-83
2022/08/16 10:54:16;;;;;;;1.10;0.82;;;;;;;;;;4971950;28;20065;-82
2022/08/16 10:56:57;;;;;;;1.50;0.80;;;;;;;;;;4971234;28;20046;-82
2022/08/16 10:59:26;;;;;;;1.55;0.90;;;;;;;;;;4970884;28;20055;-83
2022/08/16 11:02:15;;;;;;;0.98;0.75;;;;;;;;;;4968960;28;20090;-82
2022/08/16 11:05:04;;;;;;;2.20;1.00;;;;;;;;;;4961784;28;20051;-82
2022/08/16 11:07:36;;;;;;;0.70;0.70;;;;;;;;;;4972144;28;20054;-82
2022/08/16 11:10:23;;;;;;;1.65;1.15;;;;;;;;;;4971250;28;20047;-82
2022/08/16 11:13:13;;;;;;;1.33;0.90;;;;;;;;;;4961404;28;20050;-83
2022/08/16 11:16:02;;;;;;;1.00;0.75;;;;;;;;;;4970842;28;20058;-82
2022/08/16 11:18:54;;;;;;;2.50;0.60;;;;;;;;;;4970782;28;20068;-83
2022/08/16 11:21:39;;;;;;;0.90;0.80;;;;;;;;;;4971347;28;20070;-82
2022/08/16 11:24:28;;;;;;;6.43;1.15;;;;;;;;;;4971069;28;20053;-83
2022/08/16 11:27:11;;;;;;;1.40;0.98;;;;;;;;;;4970716;28;20058;-81
2022/08/16 11:29:51;;;;;;;0.80;0.80;;;;;;;;;;4971470;28;20126;-82
2022/08/16 11:32:20;;;;;;;1.33;0.70;;;;;;;;;;4971191;28;20042;-82
2022/08/16 11:35:01;;;;;;;0.75;0.68;;;;;;;;;;4970427;28;20057;-82
2022/08/16 11:37:42;;;;;;;1.15;0.88;;;;;;;;;;4971315;28;20074;-81
2022/08/16 11:40:31;;;;;;;2.88;0.80;;;;;;;;;;4969210;28;20130;-82
2022/08/16 11:43:00;;;;;;;1.10;0.98;;;;;;;;;;4970279;28;20047;-82
2022/08/16 11:45:32;;;;;;;9.45;0.90;;;;;;;;;;4970357;28;20062;-82
2022/08/16 11:48:01;;;;;;;1.10;0.68;;;;;;;;;;4971673;28;20134;-82
2022/08/16 11:50:32;;;;;;;2.88;1.15;;;;;;;;;;4971127;28;20078;-82
2022/08/16 11:53:01;;;;;;;1.50;0.60;;;;;;;;;;4970737;28;20107;-83
2022/08/16 11:55:31;;;;;;;1.30;1.00;;;;;;;;;;4970347;28;20064;-82
2022/08/16 11:58:00;;;;;;;1.08;0.73;;;;;;;;;;4970849;28;20090;-83
2022/08/16 12:00:29;;;;;;;1.58;0.88;;;;;;;;;;4971052;28;20460;-84
2022/08/16 12:03:18;;;;;;;1.25;1.00;;;;;;;;;;4969476;28;20051;-83
2022/08/16 12:05:47;;;;;;;1.35;0.80;;;;;;;;;;4970447;28;20113;-82
2022/08/16 12:08:21;;;;;;;2.05;0.82;;;;;;;;;;4971165;28;20058;-82
2022/08/16 12:10:55;;;;;;;1.17;0.80;;;;;;;;;;4970840;28;20042;-83
2022/08/16 12:13:33;;;;;;;2.55;0.95;;;;;;;;;;4971197;28;20078;-82
2022/08/16 12:16:05;;;;;;;1.95;1.10;;;;;;;;;;4970924;28;20086;-84
2022/08/16 12:18:36;;;;;;;1.35;0.77;;;;;;;;;;4971276;28;20063;-83
2022/08/16 12:21:08;;;;;;;3.85;0.95;;;;;;;;;;4971733;28;20138;-82
2022/08/16 12:23:37;;;;;;;2.85;0.88;;;;;;;;;;4971266;28;20055;-83
2022/08/16 12:26:09;;;;;;;1.10;0.80;;;;;;;;;;4972161;28;20043;-83
2022/08/16 12:28:38;;;;;;;1.40;1.08;;;;;;;;;;4970809;28;20171;-82
2022/08/16 12:31:23;;;;;;;0.82;0.75;;;;;;;;;;4970977;28;20057;-86
2022/08/16 12:33:52;;;;;;;1.35;1.00;;;;;;;;;;4968787;28;20062;-82
2022/08/16 12:36:23;;;;;;;1.23;0.85;;;;;;;;;;4970224;28;20055;-82
2022/08/16 12:38:51;;;;;;;1.88;1.00;;;;;;;;;;4970721;28;20082;-82
2022/08/16 12:41:20;;;;;;;1.27;1.00;;;;;;;;;;4970472;28;20057;-82
2022/08/16 12:43:52;;;;;;;2.63;0.90;;;;;;;;;;4970760;28;20054;-82
2022/08/16 12:46:24;;;;;;;1.25;0.75;;;;;;;;;;4970162;28;20479;-85
2022/08/16 12:48:58;;;;;;;4.05;1.10;;;;;;;;;;4970516;28;20468;-84
2022/08/16 12:51:31;;;;;;;1.13;0.88;;;;;;;;;;4970055;28;20130;-83
2022/08/16 12:54:20;;;;;;;2.03;0.88;;;;;;;;;;4970286;28;20434;-82
2022/08/16 12:56:48;;;;;;;1.88;0.77;;;;;;;;;;4973462;28;20086;-83
2022/08/16 12:59:19;;;;;;;1.15;0.77;;;;;;;;;;4973608;28;20132;-82
2022/08/16 13:01:49;;;;;;;1.85;1.02;;;;;;;;;;4973892;28;20125;-83
2022/08/16 13:04:25;;;;;;;1.88;1.00;;;;;;;;;;4973694;28;20047;-82
2022/08/16 13:06:57;;;;;;;0.85;0.82;;;;;;;;;;4973777;28;20110;-83
2022/08/16 13:09:28;;;;;;;1.10;1.00;;;;;;;;;;4973499;28;20059;-82
2022/08/16 13:12:01;;;;;;;1.02;0.90;;;;;;;;;;4973535;28;20621;-82
2022/08/16 13:14:33;;;;;;;1.33;0.70;;;;;;;;;;4971283;28;20147;-82
2022/08/16 13:17:02;;;;;;;2.25;0.82;;;;;;;;;;4973262;28;20456;-82
2022/08/16 13:19:33;;;;;;;1.25;0.90;;;;;;;;;;4973433;28;20062;-82
2022/08/16 13:22:24;;;;;;;2.00;1.00;;;;;;;;;;4973266;28;20519;-83
2022/08/16 13:24:53;;;;;;;1.17;0.93;;;;;;;;;;4972936;28;20043;-84
2022/08/16 13:27:21;;;;;;;1.23;0.80;;;;;;;;;;4976347;28;20082;-82
2022/08/16 13:30:10;;;;;;;1.17;0.90;;;;;;;;;;4973328;28;20055;-82
2022/08/16 13:32:59;;;;;;;2.33;1.00;;;;;;;;;;4966414;28;20065;-82
2022/08/16 13:35:28;;;;;;;1.27;0.90;;;;;;;;;;4972444;28;20519;-83
2022/08/16 13:38:03;;;;;;;1.50;1.00;;;;;;;;;;4973660;28;20149;-82
2022/08/16 13:40:33;;;;;;;0.77;0.70;;;;;;;;;;4973180;28;20054;-83
2022/08/16 13:43:02;;;;;;;1.48;0.82;;;;;;;;;;4973479;28;20086;-82
2022/08/16 13:45:32;;;;;;;1.58;0.95;;;;;;;;;;4972448;28;20074;-83
2022/08/16 13:48:05;;;;;;;0.52;0.50;;;;;;;;;;4973097;28;20043;-82
2022/08/16 13:50:34;;;;;;;1.30;0.88;;;;;;;;;;4973366;28;20129;-82
2022/08/16 13:53:20;;;;;;;1.25;0.73;;;;;;;;;;4970040;28;20050;-82
2022/08/16 13:55:52;;;;;;;2.15;1.17;;;;;;;;;;4972225;28;20066;-82
2022/08/16 13:58:26;;;;;;;;;;;;;;;;;;4973664;28;20133;-82
2022/08/16 14:01:07;;;;;;;2.67;0.80;;;;;;;;;;4973185;28;19922;-82
2022/08/16 14:03:37;;;;;;;1.13;0.80;;;;;;;;;;4970511;28;20042;-83
2022/08/16 14:06:06;;;;;;;0.82;0.60;;;;;;;;;;4971120;28;20070;-83
2022/08/16 14:08:40;;;;;;;0.70;0.63;;;;;;;;;;4972981;28;20055;-83
2022/08/16 14:11:10;;;;;;;2.05;0.93;;;;;;;;;;4972684;28;20513;-82
2022/08/16 14:13:39;;;;;;;1.23;0.80;;;;;;;;;;4972482;28;20491;-84
2022/08/16 14:16:08;;;;;;;0.85;0.73;;;;;;;;;;4971753;28;20067;-84
2022/08/16 14:18:50;;;;;;;0.82;0.70;;;;;;;;;;4972597;28;20129;-82
2022/08/16 14:21:20;;;;;;;1.55;0.70;;;;;;;;;;4972742;28;20082;-84
2022/08/16 14:23:52;;;;;;;1.30;1.00;;;;;;;;;;4972838;28;20082;-82
2022/08/16 14:26:23;;;;;;;2.20;1.15;;;;;;;;;;4955702;28;20051;-84
2022/08/16 14:28:52;;;;;;;1.45;0.80;;;;;;;;;;4953135;28;20047;-84
2022/08/16 14:31:22;;;;;;;1.27;0.90;;;;;;;;;;4952947;28;20043;-82
2022/08/16 14:33:51;;;;;;;1.38;0.90;;;;;;;;;;4950349;28;20134;-82
2022/08/16 14:36:19;;;;;;;2.88;0.82;;;;;;;;;;4964671;28;20502;-84
2022/08/16 14:38:58;;;;;;;1.17;0.70;;;;;;;;;;4972701;28;20051;-83
2022/08/16 14:41:28;;;;;;;1.05;0.80;;;;;;;;;;4971945;28;20130;-84
2022/08/16 14:43:57;;;;;;;1.13;1.00;;;;;;;;;;4972252;28;20053;-80
2022/08/16 14:46:25;;;;;;;0.70;0.70;;;;;;;;;;4971379;28;20078;-82
2022/08/16 14:48:54;;;;;;;0.77;0.70;;;;;;;;;;4972248;28;20454;-84
2022/08/16 14:51:22;;;;;;;0.65;0.52;;;;;;;;;;4971942;28;20094;-82
2022/08/16 14:53:55;;;;;;;0.80;0.70;;;;;;;;;;4972094;28;20130;-84
2022/08/16 14:56:25;;;;;;;1.60;0.77;;;;;;;;;;4971674;28;20562;-83
2022/08/16 14:59:10;;;;;;;0.90;0.80;;;;;;;;;;4967396;28;20042;-83
2022/08/16 15:01:39;;;;;;;1.23;0.73;;;;;;;;;;4971593;28;20113;-81
2022/08/16 15:04:27;;;;;;;0.80;0.80;;;;;;;;;;4969464;28;20084;-82
2022/08/16 15:07:08;;;;;;;1.88;1.08;;;;;;;;;;4971749;28;20050;-82
2022/08/16 15:09:40;;;;;;;0.77;0.60;;;;;;;;;;4972743;28;20046;-83
2022/08/16 15:12:29;;;;;;;2.72;0.63;;;;;;;;;;4971467;28;20065;-83
2022/08/16 15:15:01;;;;;;;1.05;0.68;;;;;;;;;;4971315;28;20522;-81
2022/08/16 15:17:41;;;;;;;1.55;0.82;;;;;;;;;;4968626;28;20109;-82
2022/08/16 15:20:25;;;;;;;0.70;0.60;;;;;;;;;;4971361;28;20051;-84
2022/08/16 15:22:54;;;;;;;1.52;0.93;;;;;;;;;;4971378;28;20047;-83
2022/08/16 15:25:23;;;;;;;1.60;1.23;;;;;;;;;;4971029;28;20089;-82
2022/08/16 15:28:01;;;;;;;0.80;0.70;;;;;;;;;;4971802;28;20049;-82
2022/08/16 15:30:32;;;;;;;1.08;0.70;;;;;;;;;;4971260;28;20047;-82
2022/08/16 15:33:23;;;;;;;1.25;0.70;;;;;;;;;;4971468;28;20418;-82
2022/08/16 15:35:53;;;;;;;9.90;0.98;;;;;;;;;;4961626;28;20105;-81
2022/08/16 15:38:25;;;;;;;2.38;0.77;;;;;;;;;;4971029;28;20047;-83